Pede Vento — CRLZ9 — position and weather

sailwx.info

Track history (hours):
 
Tides and Currents Weather Stations Pressure Air Temp Water Temp Dewpoint Dewpoint Depression Visibility Wind Speed Wind Dir Waves Ship Positions

Pede Vento

Last reported at 2016-Jan-17 14:11 UTC. Time now 2016-Feb-06 00:20 UTC.
Position N 38°42' W 009°10'.
Warning: this ship's position is 19 days out of date.

Length 12 m.

Type: Sailing vessel. MMSI: 263819560.

Date/timePositionNaut miles runAvg speedWind from/ knotsBaromVisibWave heightAir tempDewpointWater temp
2016-Jan-17 14:11N 38°42' W 009°10'2 3.1
2016-Jan-17 13:32N 38°41' W 009°08'0 0.5
2016-Jan-17 12:32N 38°42' W 009°07'1 0.5
2016-Jan-17 11:32N 38°41' W 009°08'2 0.1
2016-Jan-16 16:32N 38°42' W 009°10'3 2.6
2016-Jan-16 15:32N 38°41' W 009°07'0 0.4
2016-Jan-16 14:33N 38°42' W 009°07'0 0.4
2016-Jan-16 13:32N 38°41' W 009°07'0 0.4
2016-Jan-16 12:32N 38°42' W 009°07'1 0.5
2016-Jan-16 11:33N 38°41' W 009°08'2 2.1
2016-Jan-16 10:33N 38°42' W 009°10'  
2016-Jan-09 15:25N 38°42' W 009°10'0 0.0
2016-Jan-09 14:31N 38°42' W 009°10'2 1.8
2016-Jan-09 13:33N 38°42' W 009°08'1 0.9
2016-Jan-09 12:33N 38°41' W 009°07'1 0.9
2016-Jan-09 11:33N 38°41' W 009°08'  
Track history (hours):
 
Tides and Currents Weather Stations Pressure Air Temp Water Temp Dewpoint Dewpoint Depression Visibility Wind Speed Wind Dir Waves Ship Positions

Pede Vento

Last reported at 2016-Jan-17 14:11 UTC. Time now 2016-Feb-06 00:20 UTC.
Position N 38°42' W 009°10'.
Warning: this ship's position is 19 days out of date.

Length 12 m.

Type: Sailing vessel. MMSI: 263819560.

Date/timePositionNaut miles runAvg speedWind from/ knotsBaromVisibWave heightAir tempDewpointWater temp
2016-Jan-17 14:11N 38°42' W 009°10'2 3.1
2016-Jan-17 13:32N 38°41' W 009°08'0 0.5
2016-Jan-17 12:32N 38°42' W 009°07'1 0.5
2016-Jan-17 11:32N 38°41' W 009°08'2 0.1
2016-Jan-16 16:32N 38°42' W 009°10'3 2.6
2016-Jan-16 15:32N 38°41' W 009°07'0 0.4
2016-Jan-16 14:33N 38°42' W 009°07'0 0.4
2016-Jan-16 13:32N 38°41' W 009°07'0 0.4
2016-Jan-16 12:32N 38°42' W 009°07'1 0.5
2016-Jan-16 11:33N 38°41' W 009°08'2 2.1
2016-Jan-16 10:33N 38°42' W 009°10'  
2016-Jan-09 15:25N 38°42' W 009°10'0 0.0
2016-Jan-09 14:31N 38°42' W 009°10'2 1.8
2016-Jan-09 13:33N 38°42' W 009°08'1 0.9
2016-Jan-09 12:33N 38°41' W 009°07'1 0.9
2016-Jan-09 11:33N 38°41' W 009°08'  

Dump ship's entire track history